sensor_id;sensor_type;location;lat;lon;timestamp;P1;durP1;ratioP1;P2;durP2;ratioP2
70733;SDS011;58320;48.804;9.252;2022-12-18T00:01:17;37.80;;;19.27;;
70733;SDS011;58320;48.804;9.252;2022-12-18T00:03:54;49.63;;;18.77;;
70733;SDS011;58320;48.804;9.252;2022-12-18T00:06:21;55.08;;;20.08;;
70733;SDS011;58320;48.804;9.252;2022-12-18T00:08:47;53.00;;;19.20;;
70733;SDS011;58320;48.804;9.252;2022-12-18T00:11:15;37.57;;;17.60;;
70733;SDS011;58320;48.804;9.252;2022-12-18T00:13:46;43.85;;;19.70;;
70733;SDS011;58320;48.804;9.252;2022-12-18T00:16:13;51.53;;;21.35;;
70733;SDS011;58320;48.804;9.252;2022-12-18T00:18:43;44.53;;;18.13;;
70733;SDS011;58320;48.804;9.252;2022-12-18T00:21:10;52.67;;;20.10;;
70733;SDS011;58320;48.804;9.252;2022-12-18T00:23:38;45.77;;;20.37;;
70733;SDS011;58320;48.804;9.252;2022-12-18T00:26:08;48.97;;;19.35;;
70733;SDS011;58320;48.804;9.252;2022-12-18T00:28:42;46.42;;;20.27;;
70733;SDS011;58320;48.804;9.252;2022-12-18T00:31:10;44.13;;;18.92;;
70733;SDS011;58320;48.804;9.252;2022-12-18T00:33:39;51.55;;;21.90;;
70733;SDS011;58320;48.804;9.252;2022-12-18T00:36:06;42.43;;;18.63;;
70733;SDS011;58320;48.804;9.252;2022-12-18T00:38:36;52.28;;;20.77;;
70733;SDS011;58320;48.804;9.252;2022-12-18T00:41:03;53.83;;;21.40;;
70733;SDS011;58320;48.804;9.252;2022-12-18T00:43:29;37.67;;;15.18;;
70733;SDS011;58320;48.804;9.252;2022-12-18T00:45:55;41.87;;;18.27;;
70733;SDS011;58320;48.804;9.252;2022-12-18T00:48:21;44.90;;;18.38;;
70733;SDS011;58320;48.804;9.252;2022-12-18T00:50:48;50.03;;;20.70;;
70733;SDS011;58320;48.804;9.252;2022-12-18T00:53:15;46.13;;;19.38;;
70733;SDS011;58320;48.804;9.252;2022-12-18T00:55:41;49.97;;;21.75;;
70733;SDS011;58320;48.804;9.252;2022-12-18T00:58:08;43.83;;;18.80;;
70733;SDS011;58320;48.804;9.252;2022-12-18T01:00:35;48.58;;;19.48;;
70733;SDS011;58320;48.804;9.252;2022-12-18T01:03:01;43.35;;;20.45;;
70733;SDS011;58320;48.804;9.252;2022-12-18T01:05:28;44.88;;;17.77;;
70733;SDS011;58320;48.804;9.252;2022-12-18T01:07:54;50.37;;;22.00;;
70733;SDS011;58320;48.804;9.252;2022-12-18T01:10:21;48.30;;;21.35;;
70733;SDS011;58320;48.804;9.252;2022-12-18T01:12:48;41.17;;;19.20;;
70733;SDS011;58320;48.804;9.252;2022-12-18T01:15:14;50.15;;;18.08;;
70733;SDS011;58320;48.804;9.252;2022-12-18T01:17:41;49.28;;;19.05;;
70733;SDS011;58320;48.804;9.252;2022-12-18T01:20:08;53.47;;;19.20;;
70733;SDS011;58320;48.804;9.252;2022-12-18T01:22:36;48.05;;;20.90;;
70733;SDS011;58320;48.804;9.252;2022-12-18T01:25:03;51.20;;;21.77;;
70733;SDS011;58320;48.804;9.252;2022-12-18T01:27:29;57.35;;;21.10;;
70733;SDS011;58320;48.804;9.252;2022-12-18T01:29:56;56.95;;;21.77;;
70733;SDS011;58320;48.804;9.252;2022-12-18T01:32:22;46.67;;;19.77;;
70733;SDS011;58320;48.804;9.252;2022-12-18T01:34:48;59.63;;;20.27;;
70733;SDS011;58320;48.804;9.252;2022-12-18T01:37:13;44.93;;;19.33;;
70733;SDS011;58320;48.804;9.252;2022-12-18T01:39:39;59.75;;;21.65;;
70733;SDS011;58320;48.804;9.252;2022-12-18T01:42:15;58.65;;;21.23;;
70733;SDS011;58320;48.804;9.252;2022-12-18T01:47:25;50.17;;;19.83;;
70733;SDS011;58320;48.804;9.252;2022-12-18T01:49:51;45.58;;;15.48;;
70733;SDS011;58320;48.804;9.252;2022-12-18T01:52:18;49.47;;;17.77;;
70733;SDS011;58320;48.804;9.252;2022-12-18T01:54:46;47.17;;;19.10;;
70733;SDS011;58320;48.804;9.252;2022-12-18T01:57:14;46.53;;;20.13;;
70733;SDS011;58320;48.804;9.252;2022-12-18T01:59:40;56.97;;;20.97;;
70733;SDS011;58320;48.804;9.252;2022-12-18T02:02:10;47.00;;;18.70;;
70733;SDS011;58320;48.804;9.252;2022-12-18T02:04:36;45.30;;;19.05;;
70733;SDS011;58320;48.804;9.252;2022-12-18T02:07:07;47.38;;;19.80;;
70733;SDS011;58320;48.804;9.252;2022-12-18T02:09:43;50.57;;;19.60;;
70733;SDS011;58320;48.804;9.252;2022-12-18T02:12:19;48.90;;;18.67;;
70733;SDS011;58320;48.804;9.252;2022-12-18T02:17:29;49.95;;;19.80;;
70733;SDS011;58320;48.804;9.252;2022-12-18T02:21:13;49.50;;;21.48;;
70733;SDS011;58320;48.804;9.252;2022-12-18T02:28:51;50.05;;;20.00;;
70733;SDS011;58320;48.804;9.252;2022-12-18T02:31:27;43.45;;;17.52;;
70733;SDS011;58320;48.804;9.252;2022-12-18T02:33:58;44.45;;;18.02;;
70733;SDS011;58320;48.804;9.252;2022-12-18T02:36:28;61.50;;;21.67;;
70733;SDS011;58320;48.804;9.252;2022-12-18T02:38:56;47.33;;;18.65;;
70733;SDS011;58320;48.804;9.252;2022-12-18T02:41:24;49.42;;;19.85;;
70733;SDS011;58320;48.804;9.252;2022-12-18T02:43:58;48.38;;;19.75;;
70733;SDS011;58320;48.804;9.252;2022-12-18T03:00:14;47.70;;;18.58;;
70733;SDS011;58320;48.804;9.252;2022-12-18T03:02:50;37.43;;;17.40;;
70733;SDS011;58320;48.804;9.252;2022-12-18T03:05:30;43.45;;;17.25;;
70733;SDS011;58320;48.804;9.252;2022-12-18T03:08:29;43.97;;;19.13;;
70733;SDS011;58320;48.804;9.252;2022-12-18T03:11:03;43.42;;;16.52;;
70733;SDS011;58320;48.804;9.252;2022-12-18T03:15:59;35.27;;;16.60;;
70733;SDS011;58320;48.804;9.252;2022-12-18T03:18:29;42.53;;;16.27;;
70733;SDS011;58320;48.804;9.252;2022-12-18T03:21:02;40.67;;;16.52;;
70733;SDS011;58320;48.804;9.252;2022-12-18T03:23:36;42.23;;;16.27;;
70733;SDS011;58320;48.804;9.252;2022-12-18T03:26:15;39.53;;;16.08;;
70733;SDS011;58320;48.804;9.252;2022-12-18T03:28:47;49.85;;;18.02;;
70733;SDS011;58320;48.804;9.252;2022-12-18T03:31:18;44.85;;;16.27;;
70733;SDS011;58320;48.804;9.252;2022-12-18T03:34:09;34.67;;;15.65;;
70733;SDS011;58320;48.804;9.252;2022-12-18T03:36:41;35.97;;;14.33;;
70733;SDS011;58320;48.804;9.252;2022-12-18T03:39:07;36.83;;;15.13;;
70733;SDS011;58320;48.804;9.252;2022-12-18T03:41:33;39.47;;;14.45;;
70733;SDS011;58320;48.804;9.252;2022-12-18T03:44:21;37.28;;;14.38;;
70733;SDS011;58320;48.804;9.252;2022-12-18T03:55:55;42.08;;;18.42;;
70733;SDS011;58320;48.804;9.252;2022-12-18T03:58:24;33.17;;;13.93;;
70733;SDS011;58320;48.804;9.252;2022-12-18T04:00:52;39.03;;;16.33;;
70733;SDS011;58320;48.804;9.252;2022-12-18T04:03:21;29.63;;;12.60;;
70733;SDS011;58320;48.804;9.252;2022-12-18T04:05:50;33.75;;;13.43;;
70733;SDS011;58320;48.804;9.252;2022-12-18T04:08:18;36.40;;;15.07;;
70733;SDS011;58320;48.804;9.252;2022-12-18T04:10:46;29.13;;;13.25;;
70733;SDS011;58320;48.804;9.252;2022-12-18T04:13:12;33.07;;;14.23;;
70733;SDS011;58320;48.804;9.252;2022-12-18T04:15:38;36.00;;;15.63;;
70733;SDS011;58320;48.804;9.252;2022-12-18T04:18:04;37.72;;;14.63;;
70733;SDS011;58320;48.804;9.252;2022-12-18T04:20:30;35.37;;;15.20;;
70733;SDS011;58320;48.804;9.252;2022-12-18T04:22:56;35.47;;;15.07;;
70733;SDS011;58320;48.804;9.252;2022-12-18T04:25:22;36.07;;;15.17;;
70733;SDS011;58320;48.804;9.252;2022-12-18T04:27:47;35.70;;;15.80;;
70733;SDS011;58320;48.804;9.252;2022-12-18T04:30:13;39.25;;;16.02;;
70733;SDS011;58320;48.804;9.252;2022-12-18T04:32:39;35.70;;;14.17;;
70733;SDS011;58320;48.804;9.252;2022-12-18T04:35:05;35.50;;;14.82;;
70733;SDS011;58320;48.804;9.252;2022-12-18T04:37:35;38.47;;;15.48;;
70733;SDS011;58320;48.804;9.252;2022-12-18T04:40:01;34.43;;;14.00;;
70733;SDS011;58320;48.804;9.252;2022-12-18T04:42:26;42.15;;;16.35;;
70733;SDS011;58320;48.804;9.252;2022-12-18T04:44:52;46.50;;;15.73;;
70733;SDS011;58320;48.804;9.252;2022-12-18T04:47:18;33.55;;;12.98;;
70733;SDS011;58320;48.804;9.252;2022-12-18T04:49:44;32.83;;;14.20;;
70733;SDS011;58320;48.804;9.252;2022-12-18T04:52:09;39.97;;;15.45;;
70733;SDS011;58320;48.804;9.252;2022-12-18T04:54:35;33.80;;;13.70;;
70733;SDS011;58320;48.804;9.252;2022-12-18T04:57:01;39.43;;;15.53;;
70733;SDS011;58320;48.804;9.252;2022-12-18T04:59:27;32.45;;;14.65;;
70733;SDS011;58320;48.804;9.252;2022-12-18T05:01:52;35.90;;;13.83;;
70733;SDS011;58320;48.804;9.252;2022-12-18T05:04:18;36.72;;;14.85;;
70733;SDS011;58320;48.804;9.252;2022-12-18T05:06:44;33.33;;;14.53;;
70733;SDS011;58320;48.804;9.252;2022-12-18T05:09:10;37.10;;;14.57;;
70733;SDS011;58320;48.804;9.252;2022-12-18T05:11:36;42.72;;;16.77;;
70733;SDS011;58320;48.804;9.252;2022-12-18T05:14:02;42.53;;;16.00;;
70733;SDS011;58320;48.804;9.252;2022-12-18T05:16:27;36.15;;;14.23;;
70733;SDS011;58320;48.804;9.252;2022-12-18T05:18:53;28.13;;;13.05;;
70733;SDS011;58320;48.804;9.252;2022-12-18T05:21:19;36.07;;;12.67;;
70733;SDS011;58320;48.804;9.252;2022-12-18T05:23:45;43.22;;;16.83;;
70733;SDS011;58320;48.804;9.252;2022-12-18T05:26:14;35.37;;;13.83;;
70733;SDS011;58320;48.804;9.252;2022-12-18T05:28:44;30.27;;;13.38;;
70733;SDS011;58320;48.804;9.252;2022-12-18T05:31:10;27.08;;;12.48;;
70733;SDS011;58320;48.804;9.252;2022-12-18T05:33:36;31.52;;;14.27;;
70733;SDS011;58320;48.804;9.252;2022-12-18T05:36:03;31.63;;;13.40;;
70733;SDS011;58320;48.804;9.252;2022-12-18T05:38:33;33.00;;;13.13;;
70733;SDS011;58320;48.804;9.252;2022-12-18T05:41:02;33.53;;;14.52;;
70733;SDS011;58320;48.804;9.252;2022-12-18T05:43:28;25.58;;;12.60;;
70733;SDS011;58320;48.804;9.252;2022-12-18T05:45:55;29.13;;;14.43;;
70733;SDS011;58320;48.804;9.252;2022-12-18T05:48:22;33.22;;;13.32;;
70733;SDS011;58320;48.804;9.252;2022-12-18T05:50:49;30.35;;;14.38;;
70733;SDS011;58320;48.804;9.252;2022-12-18T05:53:16;34.22;;;13.57;;
70733;SDS011;58320;48.804;9.252;2022-12-18T05:55:44;30.42;;;14.30;;
70733;SDS011;58320;48.804;9.252;2022-12-18T05:58:12;39.80;;;14.63;;
70733;SDS011;58320;48.804;9.252;2022-12-18T06:00:40;33.40;;;14.80;;
70733;SDS011;58320;48.804;9.252;2022-12-18T06:03:08;41.33;;;16.88;;
70733;SDS011;58320;48.804;9.252;2022-12-18T06:05:40;31.10;;;13.38;;
70733;SDS011;58320;48.804;9.252;2022-12-18T06:08:09;29.23;;;13.98;;
70733;SDS011;58320;48.804;9.252;2022-12-18T06:10:35;25.87;;;11.70;;
70733;SDS011;58320;48.804;9.252;2022-12-18T06:13:02;34.78;;;13.05;;
70733;SDS011;58320;48.804;9.252;2022-12-18T06:15:29;32.95;;;14.27;;
70733;SDS011;58320;48.804;9.252;2022-12-18T06:17:55;28.77;;;12.23;;
70733;SDS011;58320;48.804;9.252;2022-12-18T06:20:21;25.13;;;11.77;;
70733;SDS011;58320;48.804;9.252;2022-12-18T06:22:47;25.48;;;12.73;;
70733;SDS011;58320;48.804;9.252;2022-12-18T06:25:13;23.60;;;11.10;;
70733;SDS011;58320;48.804;9.252;2022-12-18T06:27:39;25.93;;;10.83;;
70733;SDS011;58320;48.804;9.252;2022-12-18T06:30:05;25.45;;;11.88;;
70733;SDS011;58320;48.804;9.252;2022-12-18T06:32:32;30.70;;;14.65;;
70733;SDS011;58320;48.804;9.252;2022-12-18T06:34:58;27.83;;;11.30;;
70733;SDS011;58320;48.804;9.252;2022-12-18T06:37:24;24.50;;;11.70;;
70733;SDS011;58320;48.804;9.252;2022-12-18T06:39:51;30.70;;;12.68;;
70733;SDS011;58320;48.804;9.252;2022-12-18T06:42:21;32.83;;;12.73;;
70733;SDS011;58320;48.804;9.252;2022-12-18T06:44:47;32.92;;;14.40;;
70733;SDS011;58320;48.804;9.252;2022-12-18T06:47:13;28.17;;;12.60;;
70733;SDS011;58320;48.804;9.252;2022-12-18T06:49:39;24.65;;;10.45;;
70733;SDS011;58320;48.804;9.252;2022-12-18T06:52:05;37.25;;;13.63;;
70733;SDS011;58320;48.804;9.252;2022-12-18T06:54:31;22.27;;;11.07;;
70733;SDS011;58320;48.804;9.252;2022-12-18T06:56:56;37.70;;;14.57;;
70733;SDS011;58320;48.804;9.252;2022-12-18T06:59:22;25.47;;;12.03;;
70733;SDS011;58320;48.804;9.252;2022-12-18T07:01:48;27.27;;;12.45;;
70733;SDS011;58320;48.804;9.252;2022-12-18T07:04:14;35.07;;;13.03;;
70733;SDS011;58320;48.804;9.252;2022-12-18T07:06:39;30.50;;;13.00;;
70733;SDS011;58320;48.804;9.252;2022-12-18T07:09:05;32.15;;;13.32;;
70733;SDS011;58320;48.804;9.252;2022-12-18T07:11:34;31.03;;;14.20;;
70733;SDS011;58320;48.804;9.252;2022-12-18T07:14:00;32.25;;;13.48;;
70733;SDS011;58320;48.804;9.252;2022-12-18T07:16:26;35.20;;;13.48;;
70733;SDS011;58320;48.804;9.252;2022-12-18T07:18:56;32.10;;;13.23;;
70733;SDS011;58320;48.804;9.252;2022-12-18T07:21:22;36.22;;;14.00;;
70733;SDS011;58320;48.804;9.252;2022-12-18T07:23:49;33.70;;;12.73;;
70733;SDS011;58320;48.804;9.252;2022-12-18T07:26:17;24.95;;;12.32;;
70733;SDS011;58320;48.804;9.252;2022-12-18T07:28:45;26.75;;;12.68;;
70733;SDS011;58320;48.804;9.252;2022-12-18T07:31:16;29.83;;;13.95;;
70733;SDS011;58320;48.804;9.252;2022-12-18T07:33:45;41.17;;;13.30;;
70733;SDS011;58320;48.804;9.252;2022-12-18T07:36:11;37.88;;;13.40;;
70733;SDS011;58320;48.804;9.252;2022-12-18T07:38:38;29.42;;;13.82;;
70733;SDS011;58320;48.804;9.252;2022-12-18T07:41:08;24.15;;;11.77;;
70733;SDS011;58320;48.804;9.252;2022-12-18T07:43:38;23.45;;;12.07;;
70733;SDS011;58320;48.804;9.252;2022-12-18T07:46:04;27.83;;;12.40;;
70733;SDS011;58320;48.804;9.252;2022-12-18T07:48:31;33.95;;;14.38;;
70733;SDS011;58320;48.804;9.252;2022-12-18T07:51:00;27.20;;;12.48;;
70733;SDS011;58320;48.804;9.252;2022-12-18T07:53:29;28.88;;;12.80;;
70733;SDS011;58320;48.804;9.252;2022-12-18T07:55:57;36.25;;;13.15;;
70733;SDS011;58320;48.804;9.252;2022-12-18T07:58:29;25.23;;;12.07;;
70733;SDS011;58320;48.804;9.252;2022-12-18T08:01:02;33.13;;;14.63;;
70733;SDS011;58320;48.804;9.252;2022-12-18T08:03:35;33.58;;;12.45;;
70733;SDS011;58320;48.804;9.252;2022-12-18T08:06:03;29.63;;;13.35;;
70733;SDS011;58320;48.804;9.252;2022-12-18T08:08:31;32.92;;;15.27;;
70733;SDS011;58320;48.804;9.252;2022-12-18T08:10:58;34.73;;;14.53;;
70733;SDS011;58320;48.804;9.252;2022-12-18T08:13:25;30.65;;;14.32;;
70733;SDS011;58320;48.804;9.252;2022-12-18T08:15:56;28.67;;;13.52;;
70733;SDS011;58320;48.804;9.252;2022-12-18T08:18:29;34.15;;;14.50;;
70733;SDS011;58320;48.804;9.252;2022-12-18T08:21:09;33.28;;;13.82;;
70733;SDS011;58320;48.804;9.252;2022-12-18T08:23:37;34.30;;;12.53;;
70733;SDS011;58320;48.804;9.252;2022-12-18T08:26:03;34.85;;;15.32;;
70733;SDS011;58320;48.804;9.252;2022-12-18T08:28:29;35.42;;;14.98;;
70733;SDS011;58320;48.804;9.252;2022-12-18T08:30:55;33.08;;;15.32;;
70733;SDS011;58320;48.804;9.252;2022-12-18T08:33:20;35.40;;;14.97;;
70733;SDS011;58320;48.804;9.252;2022-12-18T08:35:46;29.88;;;14.77;;
70733;SDS011;58320;48.804;9.252;2022-12-18T08:38:12;35.73;;;15.50;;
70733;SDS011;58320;48.804;9.252;2022-12-18T08:40:38;34.20;;;16.43;;
70733;SDS011;58320;48.804;9.252;2022-12-18T08:43:04;44.20;;;15.90;;
70733;SDS011;58320;48.804;9.252;2022-12-18T08:45:48;39.90;;;14.75;;
70733;SDS011;58320;48.804;9.252;2022-12-18T08:48:14;31.90;;;14.83;;
70733;SDS011;58320;48.804;9.252;2022-12-18T08:50:40;35.63;;;15.40;;
70733;SDS011;58320;48.804;9.252;2022-12-18T08:53:06;36.27;;;16.27;;
70733;SDS011;58320;48.804;9.252;2022-12-18T08:55:31;41.33;;;17.85;;
70733;SDS011;58320;48.804;9.252;2022-12-18T08:57:57;44.70;;;15.63;;
70733;SDS011;58320;48.804;9.252;2022-12-18T09:00:23;34.53;;;15.80;;
70733;SDS011;58320;48.804;9.252;2022-12-18T09:02:49;38.97;;;15.88;;
70733;SDS011;58320;48.804;9.252;2022-12-18T09:05:15;46.33;;;17.13;;
70733;SDS011;58320;48.804;9.252;2022-12-18T09:07:40;35.38;;;15.75;;
70733;SDS011;58320;48.804;9.252;2022-12-18T09:10:06;45.35;;;19.30;;
70733;SDS011;58320;48.804;9.252;2022-12-18T09:12:32;43.10;;;17.60;;
70733;SDS011;58320;48.804;9.252;2022-12-18T09:14:58;37.60;;;17.90;;
70733;SDS011;58320;48.804;9.252;2022-12-18T09:17:24;50.75;;;18.15;;
70733;SDS011;58320;48.804;9.252;2022-12-18T09:19:50;44.43;;;16.43;;
70733;SDS011;58320;48.804;9.252;2022-12-18T09:22:16;37.80;;;16.85;;
70733;SDS011;58320;48.804;9.252;2022-12-18T09:24:42;39.72;;;17.58;;
70733;SDS011;58320;48.804;9.252;2022-12-18T09:27:07;36.87;;;17.00;;
70733;SDS011;58320;48.804;9.252;2022-12-18T09:29:33;38.53;;;16.83;;
70733;SDS011;58320;48.804;9.252;2022-12-18T09:31:59;39.93;;;16.53;;
70733;SDS011;58320;48.804;9.252;2022-12-18T09:34:25;40.73;;;17.13;;
70733;SDS011;58320;48.804;9.252;2022-12-18T09:36:50;41.38;;;16.80;;
70733;SDS011;58320;48.804;9.252;2022-12-18T09:39:16;42.37;;;16.90;;
70733;SDS011;58320;48.804;9.252;2022-12-18T09:41:46;36.72;;;16.80;;
70733;SDS011;58320;48.804;9.252;2022-12-18T09:44:25;35.67;;;14.80;;
70733;SDS011;58320;48.804;9.252;2022-12-18T09:47:08;39.80;;;16.23;;
70733;SDS011;58320;48.804;9.252;2022-12-18T09:49:45;36.58;;;15.20;;
70733;SDS011;58320;48.804;9.252;2022-12-18T09:57:36;34.07;;;15.00;;
70733;SDS011;58320;48.804;9.252;2022-12-18T10:00:17;32.72;;;14.27;;
70733;SDS011;58320;48.804;9.252;2022-12-18T10:02:49;36.10;;;14.45;;
70733;SDS011;58320;48.804;9.252;2022-12-18T10:06:06;38.17;;;16.00;;
70733;SDS011;58320;48.804;9.252;2022-12-18T10:08:13;41.17;;;16.40;;
70733;SDS011;58320;48.804;9.252;2022-12-18T10:10:51;38.57;;;16.57;;
70733;SDS011;58320;48.804;9.252;2022-12-18T10:27:35;41.28;;;18.90;;
70733;SDS011;58320;48.804;9.252;2022-12-18T10:30:03;45.03;;;20.33;;
70733;SDS011;58320;48.804;9.252;2022-12-18T10:32:39;41.53;;;18.70;;
70733;SDS011;58320;48.804;9.252;2022-12-18T10:35:08;39.63;;;17.60;;
70733;SDS011;58320;48.804;9.252;2022-12-18T10:40:47;41.45;;;18.10;;
70733;SDS011;58320;48.804;9.252;2022-12-18T10:48:36;43.97;;;17.27;;
70733;SDS011;58320;48.804;9.252;2022-12-18T10:51:29;39.42;;;16.48;;
70733;SDS011;58320;48.804;9.252;2022-12-18T10:53:59;36.97;;;16.98;;
70733;SDS011;58320;48.804;9.252;2022-12-18T10:56:46;39.88;;;17.00;;
70733;SDS011;58320;48.804;9.252;2022-12-18T10:59:13;43.60;;;18.27;;
70733;SDS011;58320;48.804;9.252;2022-12-18T11:01:51;36.05;;;15.90;;
70733;SDS011;58320;48.804;9.252;2022-12-18T11:04:30;34.13;;;16.75;;
70733;SDS011;58320;48.804;9.252;2022-12-18T11:09:37;36.08;;;16.77;;
70733;SDS011;58320;48.804;9.252;2022-12-18T11:12:17;39.17;;;17.20;;
70733;SDS011;58320;48.804;9.252;2022-12-18T11:14:48;37.05;;;16.42;;
70733;SDS011;58320;48.804;9.252;2022-12-18T11:17:41;36.33;;;17.25;;
70733;SDS011;58320;48.804;9.252;2022-12-18T11:20:17;34.40;;;16.55;;
70733;SDS011;58320;48.804;9.252;2022-12-18T11:23:05;39.25;;;17.02;;
70733;SDS011;58320;48.804;9.252;2022-12-18T11:25:38;39.30;;;16.83;;
70733;SDS011;58320;48.804;9.252;2022-12-18T11:31:12;38.00;;;17.33;;
70733;SDS011;58320;48.804;9.252;2022-12-18T11:34:12;36.65;;;17.90;;
70733;SDS011;58320;48.804;9.252;2022-12-18T11:36:53;37.33;;;17.85;;
70733;SDS011;58320;48.804;9.252;2022-12-18T11:44:54;36.72;;;18.92;;
70733;SDS011;58320;48.804;9.252;2022-12-18T11:47:27;40.83;;;19.05;;
70733;SDS011;58320;48.804;9.252;2022-12-18T11:50:13;42.65;;;20.50;;
70733;SDS011;58320;48.804;9.252;2022-12-18T11:52:56;38.80;;;18.90;;
70733;SDS011;58320;48.804;9.252;2022-12-18T11:55:31;37.38;;;18.33;;
70733;SDS011;58320;48.804;9.252;2022-12-18T11:58:48;35.67;;;17.58;;
70733;SDS011;58320;48.804;9.252;2022-12-18T12:26:35;45.22;;;20.85;;
70733;SDS011;58320;48.804;9.252;2022-12-18T12:29:18;38.22;;;19.63;;
70733;SDS011;58320;48.804;9.252;2022-12-18T12:32:42;37.33;;;19.13;;
70733;SDS011;58320;48.804;9.252;2022-12-18T12:38:14;41.53;;;19.60;;
70733;SDS011;58320;48.804;9.252;2022-12-18T12:40:49;39.67;;;19.17;;
70733;SDS011;58320;48.804;9.252;2022-12-18T12:43:22;36.00;;;18.20;;
70733;SDS011;58320;48.804;9.252;2022-12-18T12:46:11;40.87;;;20.93;;
70733;SDS011;58320;48.804;9.252;2022-12-18T12:51:45;37.20;;;17.95;;
70733;SDS011;58320;48.804;9.252;2022-12-18T12:54:36;35.25;;;17.58;;
70733;SDS011;58320;48.804;9.252;2022-12-18T12:57:14;36.63;;;18.17;;
70733;SDS011;58320;48.804;9.252;2022-12-18T13:07:57;39.65;;;17.95;;
70733;SDS011;58320;48.804;9.252;2022-12-18T13:10:41;34.55;;;16.30;;
70733;SDS011;58320;48.804;9.252;2022-12-18T13:13:11;36.73;;;17.20;;
70733;SDS011;58320;48.804;9.252;2022-12-18T13:15:47;35.83;;;16.88;;
70733;SDS011;58320;48.804;9.252;2022-12-18T13:18:28;32.03;;;15.65;;
70733;SDS011;58320;48.804;9.252;2022-12-18T13:26:34;39.20;;;18.38;;
70733;SDS011;58320;48.804;9.252;2022-12-18T13:36:50;37.47;;;17.20;;
70733;SDS011;58320;48.804;9.252;2022-12-18T13:41:44;35.72;;;15.52;;
70733;SDS011;58320;48.804;9.252;2022-12-18T13:46:58;29.75;;;13.48;;
70733;SDS011;58320;48.804;9.252;2022-12-18T13:49:36;31.30;;;15.02;;
70733;SDS011;58320;48.804;9.252;2022-12-18T13:52:20;39.72;;;16.98;;
70733;SDS011;58320;48.804;9.252;2022-12-18T13:54:51;37.13;;;17.45;;
70733;SDS011;58320;48.804;9.252;2022-12-18T13:59:59;36.20;;;15.90;;
70733;SDS011;58320;48.804;9.252;2022-12-18T14:02:44;38.88;;;17.45;;
70733;SDS011;58320;48.804;9.252;2022-12-18T14:05:27;33.22;;;16.65;;
70733;SDS011;58320;48.804;9.252;2022-12-18T14:08:04;32.20;;;14.95;;
70733;SDS011;58320;48.804;9.252;2022-12-18T14:10:33;36.30;;;16.53;;
70733;SDS011;58320;48.804;9.252;2022-12-18T14:13:06;30.55;;;14.25;;
70733;SDS011;58320;48.804;9.252;2022-12-18T14:15:40;38.50;;;17.27;;
70733;SDS011;58320;48.804;9.252;2022-12-18T14:20:50;37.70;;;16.92;;
70733;SDS011;58320;48.804;9.252;2022-12-18T14:23:36;36.47;;;16.13;;
70733;SDS011;58320;48.804;9.252;2022-12-18T14:28:54;46.72;;;20.48;;
70733;SDS011;58320;48.804;9.252;2022-12-18T14:31:23;40.22;;;20.05;;
70733;SDS011;58320;48.804;9.252;2022-12-18T14:33:51;49.58;;;21.63;;
70733;SDS011;58320;48.804;9.252;2022-12-18T14:36:20;44.37;;;19.20;;
70733;SDS011;58320;48.804;9.252;2022-12-18T14:38:54;52.90;;;20.23;;
70733;SDS011;58320;48.804;9.252;2022-12-18T14:41:23;43.42;;;20.05;;
70733;SDS011;58320;48.804;9.252;2022-12-18T14:43:50;46.30;;;20.10;;
70733;SDS011;58320;48.804;9.252;2022-12-18T14:46:35;47.63;;;21.17;;
70733;SDS011;58320;48.804;9.252;2022-12-18T14:49:17;45.53;;;19.77;;
70733;SDS011;58320;48.804;9.252;2022-12-18T14:51:50;45.75;;;19.15;;
70733;SDS011;58320;48.804;9.252;2022-12-18T14:54:22;41.33;;;18.02;;
70733;SDS011;58320;48.804;9.252;2022-12-18T14:59:27;50.65;;;20.52;;
70733;SDS011;58320;48.804;9.252;2022-12-18T15:01:59;50.33;;;22.67;;
70733;SDS011;58320;48.804;9.252;2022-12-18T15:04:39;50.60;;;20.95;;
70733;SDS011;58320;48.804;9.252;2022-12-18T15:07:22;45.50;;;19.83;;
70733;SDS011;58320;48.804;9.252;2022-12-18T15:12:44;54.67;;;22.27;;
70733;SDS011;58320;48.804;9.252;2022-12-18T15:18:01;51.88;;;23.00;;
70733;SDS011;58320;48.804;9.252;2022-12-18T15:20:44;48.30;;;23.52;;
70733;SDS011;58320;48.804;9.252;2022-12-18T15:23:17;49.28;;;21.35;;
70733;SDS011;58320;48.804;9.252;2022-12-18T15:29:15;49.73;;;20.60;;
70733;SDS011;58320;48.804;9.252;2022-12-18T15:31:33;51.75;;;22.30;;
70733;SDS011;58320;48.804;9.252;2022-12-18T15:34:10;54.47;;;23.23;;
70733;SDS011;58320;48.804;9.252;2022-12-18T15:36:44;50.05;;;22.25;;
70733;SDS011;58320;48.804;9.252;2022-12-18T15:39:10;52.13;;;22.77;;
70733;SDS011;58320;48.804;9.252;2022-12-18T15:41:39;54.97;;;23.42;;
70733;SDS011;58320;48.804;9.252;2022-12-18T15:44:26;51.58;;;23.55;;
70733;SDS011;58320;48.804;9.252;2022-12-18T15:46:51;50.85;;;22.50;;
70733;SDS011;58320;48.804;9.252;2022-12-18T15:49:17;53.27;;;22.20;;
70733;SDS011;58320;48.804;9.252;2022-12-18T15:51:43;55.75;;;21.23;;
70733;SDS011;58320;48.804;9.252;2022-12-18T15:54:10;56.55;;;23.95;;
70733;SDS011;58320;48.804;9.252;2022-12-18T15:56:41;56.00;;;23.90;;
70733;SDS011;58320;48.804;9.252;2022-12-18T15:59:27;49.47;;;21.40;;
70733;SDS011;58320;48.804;9.252;2022-12-18T16:01:53;51.97;;;22.97;;
70733;SDS011;58320;48.804;9.252;2022-12-18T16:04:20;53.38;;;23.90;;
70733;SDS011;58320;48.804;9.252;2022-12-18T16:06:47;52.30;;;23.73;;
70733;SDS011;58320;48.804;9.252;2022-12-18T16:09:13;56.10;;;24.13;;
70733;SDS011;58320;48.804;9.252;2022-12-18T16:11:41;58.27;;;25.17;;
70733;SDS011;58320;48.804;9.252;2022-12-18T16:16:46;64.53;;;25.98;;
70733;SDS011;58320;48.804;9.252;2022-12-18T16:19:20;60.72;;;26.13;;
70733;SDS011;58320;48.804;9.252;2022-12-18T16:21:47;56.73;;;24.53;;
70733;SDS011;58320;48.804;9.252;2022-12-18T16:24:15;58.60;;;24.35;;
70733;SDS011;58320;48.804;9.252;2022-12-18T16:26:43;53.28;;;24.77;;
70733;SDS011;58320;48.804;9.252;2022-12-18T16:29:09;57.67;;;24.27;;
70733;SDS011;58320;48.804;9.252;2022-12-18T16:31:36;63.67;;;26.10;;
70733;SDS011;58320;48.804;9.252;2022-12-18T16:34:12;66.60;;;26.63;;
70733;SDS011;58320;48.804;9.252;2022-12-18T16:36:51;59.92;;;25.65;;
70733;SDS011;58320;48.804;9.252;2022-12-18T16:39:18;62.58;;;26.58;;
70733;SDS011;58320;48.804;9.252;2022-12-18T16:41:45;59.20;;;24.27;;
70733;SDS011;58320;48.804;9.252;2022-12-18T16:44:12;60.90;;;24.35;;
70733;SDS011;58320;48.804;9.252;2022-12-18T16:46:39;59.23;;;24.43;;
70733;SDS011;58320;48.804;9.252;2022-12-18T16:49:07;55.15;;;23.23;;
70733;SDS011;58320;48.804;9.252;2022-12-18T16:51:35;52.95;;;23.63;;
70733;SDS011;58320;48.804;9.252;2022-12-18T16:54:00;61.25;;;23.23;;
70733;SDS011;58320;48.804;9.252;2022-12-18T16:56:26;53.77;;;22.67;;
70733;SDS011;58320;48.804;9.252;2022-12-18T16:58:52;55.50;;;21.13;;
70733;SDS011;58320;48.804;9.252;2022-12-18T17:01:23;50.15;;;21.30;;
70733;SDS011;58320;48.804;9.252;2022-12-18T17:03:53;54.73;;;22.37;;
70733;SDS011;58320;48.804;9.252;2022-12-18T17:06:27;53.70;;;22.40;;
70733;SDS011;58320;48.804;9.252;2022-12-18T17:09:00;54.78;;;21.20;;
70733;SDS011;58320;48.804;9.252;2022-12-18T17:11:31;51.80;;;21.60;;
70733;SDS011;58320;48.804;9.252;2022-12-18T17:13:59;58.72;;;22.33;;
70733;SDS011;58320;48.804;9.252;2022-12-18T17:16:31;51.47;;;21.13;;